Time;durP1;ratioP1;P1;durP2;ratioP2;P2;SDS_P1;SDS_P2;PMS_P1;PMS_P2;Temp;Humidity;BMP_temperature;BMP_pressure;BME280_temperature;BME280_humidity;BME280_pressure;Samples;Min_cycle;Max_cycle;Signal;HPM_P1;HPM_P2
2023/02/09 00:02:18;;;;;;;124.90;54.30;;;;;;;-5.93;76.31;103235.10;105041;1264;96744;-78
2023/02/09 00:05:04;;;;;;;128.60;54.10;;;;;;;-5.92;76.39;103233.52;104760;1267;99597;-78
2023/02/09 00:07:49;;;;;;;120.90;53.90;;;;;;;-5.91;76.54;103239.08;104899;1267;100017;-78
2023/02/09 00:10:37;;;;;;;115.80;49.60;;;;;;;-5.89;76.55;103235.22;105043;1263;100083;-78
2023/02/09 00:13:25;;;;;;;118.20;50.80;;;;;;;-5.90;76.54;103227.07;105571;1267;99426;-79
2023/02/09 00:16:11;;;;;;;107.90;45.90;;;;;;;-5.97;76.47;103217.58;105170;1266;96634;-79
2023/02/09 00:18:57;;;;;;;106.60;48.90;;;;;;;-6.08;76.38;103217.87;104955;1270;97243;-77
2023/02/09 00:21:43;;;;;;;115.00;51.00;;;;;;;-6.11;76.55;103226.27;105167;1267;100021;-78
2023/02/09 00:24:28;;;;;;;119.50;52.10;;;;;;;-6.10;76.60;103230.08;105148;1274;99119;-78
2023/02/09 00:27:13;;;;;;;133.30;54.50;;;;;;;-6.09;76.50;103233.73;105229;1263;97694;-77
2023/02/09 00:29:59;;;;;;;135.20;52.70;;;;;;;-6.08;76.51;103229.54;105148;1263;97048;-78
2023/02/09 00:32:45;;;;;;;129.80;53.00;;;;;;;-6.05;76.62;103229.32;105036;1263;97353;-78
2023/02/09 00:35:30;;;;;;;127.60;53.70;;;;;;;-6.01;76.90;103230.67;105124;1262;100069;-79
2023/02/09 00:38:16;;;;;;;119.50;49.30;;;;;;;-5.95;77.19;103225.39;105298;1267;99075;-78
2023/02/09 00:41:02;;;;;;;111.40;49.50;;;;;;;-5.90;77.42;103222.71;105056;1267;97572;-79
2023/02/09 00:43:47;;;;;;;107.80;49.00;;;;;;;-5.83;77.74;103220.52;105071;1267;97798;-79
2023/02/09 00:46:33;;;;;;;106.00;47.50;;;;;;;-5.77;77.81;103216.44;105165;1266;96542;-77
2023/02/09 00:49:18;;;;;;;98.80;44.40;;;;;;;-5.71;77.80;103218.09;105155;1261;100077;-79
2023/02/09 00:52:04;;;;;;;99.70;45.20;;;;;;;-5.67;77.84;103214.73;105058;1264;99989;-77
2023/02/09 00:54:50;;;;;;;94.40;41.90;;;;;;;-5.62;77.98;103210.31;104894;1269;98314;-78
2023/02/09 00:57:35;;;;;;;94.30;42.90;;;;;;;-5.59;78.07;103205.75;105039;1265;96791;-79
2023/02/09 01:00:21;;;;;;;96.20;43.10;;;;;;;-5.55;78.33;103199.92;105166;1263;97165;-78
2023/02/09 01:03:06;;;;;;;100.20;44.50;;;;;;;-5.51;78.59;103197.80;105104;1263;100561;-78
2023/02/09 01:05:52;;;;;;;87.90;41.10;;;;;;;-5.45;79.06;103196.50;105236;1264;99104;-78
2023/02/09 01:08:37;;;;;;;97.30;41.70;;;;;;;-5.43;78.75;103200.83;105277;1264;99007;-78
2023/02/09 01:11:26;;;;;;;98.60;43.70;;;;;;;-5.44;78.82;103207.98;105163;1264;96740;-77
2023/02/09 01:14:12;;;;;;;102.70;46.80;;;;;;;-5.43;79.09;103205.87;105140;1262;97125;-80
2023/02/09 01:16:57;;;;;;;110.50;51.20;;;;;;;-5.45;78.83;103195.45;105177;1261;101300;-78
2023/02/09 01:19:44;;;;;;;108.60;47.90;;;;;;;-5.45;78.83;103189.17;105114;1261;99104;-78
2023/02/09 01:22:30;;;;;;;95.10;43.30;;;;;;;-5.44;79.10;103186.02;104972;1264;97808;-78
2023/02/09 01:25:16;;;;;;;85.40;39.70;;;;;;;-5.45;79.32;103181.87;105143;1267;96594;-78
2023/02/09 01:28:01;;;;;;;84.40;40.50;;;;;;;-5.50;79.35;103178.45;105411;1267;97163;-78
2023/02/09 01:30:47;;;;;;;79.50;37.70;;;;;;;-5.57;79.13;103173.69;105344;1264;100017;-78
2023/02/09 01:33:32;;;;;;;93.10;43.40;;;;;;;-5.70;78.46;103170.56;105263;1265;99691;-78
2023/02/09 01:36:19;;;;;;;94.50;41.00;;;;;;;-5.83;77.95;103163.79;105213;1267;97816;-78
2023/02/09 01:39:04;;;;;;;75.30;37.00;;;;;;;-5.96;77.57;103162.60;105154;1267;96538;-80
2023/02/09 01:41:53;;;;;;;84.60;40.40;;;;;;;-6.08;77.44;103155.45;104980;1264;97223;-78
2023/02/09 01:44:38;;;;;;;92.60;40.60;;;;;;;-6.18;77.30;103153.48;105059;1264;101128;-78
2023/02/09 01:47:24;;;;;;;89.70;42.40;;;;;;;-6.26;77.54;103152.54;105214;1266;100327;-78
2023/02/09 01:50:10;;;;;;;89.90;40.40;;;;;;;-6.29;77.66;103146.13;104833;1262;99503;-78
2023/02/09 01:52:56;;;;;;;87.60;40.00;;;;;;;-6.29;77.96;103141.27;105097;1267;97482;-78
2023/02/09 01:55:50;;;;;;;82.10;39.60;;;;;;;-6.29;78.21;103138.84;105025;1267;97101;-78
2023/02/09 01:58:36;;;;;;;87.40;40.30;;;;;;;-6.30;78.12;103129.81;105141;1261;101064;-78
2023/02/09 02:01:23;;;;;;;87.70;38.70;;;;;;;-6.35;78.02;103120.65;105082;1267;99237;-79
2023/02/09 02:04:09;;;;;;;82.70;41.00;;;;;;;-6.40;77.91;103119.84;105176;1263;99356;-79
2023/02/09 02:07:01;;;;;;;86.50;38.50;;;;;;;-6.43;78.03;103112.75;105244;1264;96642;-78
2023/02/09 02:09:46;;;;;;;79.20;36.30;;;;;;;-6.43;78.69;103107.89;105218;1266;96532;-78
2023/02/09 02:12:33;;;;;;;82.70;38.10;;;;;;;-6.42;78.87;103108.76;104926;1264;100118;-77
2023/02/09 02:15:18;;;;;;;83.10;38.00;;;;;;;-6.42;78.98;103104.23;105263;1265;100360;-79
2023/02/09 02:18:30;;;;;;;75.10;33.90;;;;;;;-6.44;78.88;103093.99;105108;1261;97747;-79
2023/02/09 02:21:34;;;;;;;88.40;37.40;;;;;;;-6.49;78.92;103088.48;105129;1267;97817;-78
2023/02/09 02:24:36;;;;;;;82.40;37.90;;;;;;;-6.50;79.44;103084.51;104907;1267;96585;-77
2023/02/09 02:27:38;;;;;;;78.70;35.20;;;;;;;-6.47;79.77;103080.30;105127;1267;100467;-78
2023/02/09 02:30:36;;;;;;;79.80;36.20;;;;;;;-6.46;79.81;103072.80;105179;1262;100382;-79
2023/02/09 02:33:37;;;;;;;77.90;35.60;;;;;;;-6.43;79.96;103067.91;105184;1267;97714;-79
2023/02/09 02:36:51;;;;;;;86.90;41.20;;;;;;;-6.40;79.81;103067.53;104986;1270;96622;-78
2023/02/09 02:39:58;;;;;;;74.00;34.00;;;;;;;-6.38;80.20;103064.52;105291;1264;97488;-78
2023/02/09 02:43:06;;;;;;;76.90;33.40;;;;;;;-6.35;80.11;103060.69;105225;1266;101288;-79
2023/02/09 02:46:03;;;;;;;74.60;35.70;;;;;;;-6.35;79.98;103061.56;105130;1263;100443;-78
2023/02/09 02:49:07;;;;;;;81.80;37.10;;;;;;;-6.33;80.15;103055.09;105295;1266;98661;-77
2023/02/09 02:51:58;;;;;;;73.60;34.50;;;;;;;-6.30;80.37;103056.09;105257;1264;96673;-79
2023/02/09 02:54:50;;;;;;;82.70;38.00;;;;;;;-6.28;80.31;103055.89;104965;1265;96743;-78
2023/02/09 02:57:39;;;;;;;87.70;38.70;;;;;;;-6.22;80.56;103050.60;105134;1264;100720;-79
2023/02/09 03:00:30;;;;;;;83.10;38.50;;;;;;;-6.17;80.89;103048.09;105218;1267;99338;-78
2023/02/09 03:03:21;;;;;;;91.90;39.30;;;;;;;-6.12;80.91;103040.71;105166;1265;99474;-78
2023/02/09 03:06:08;;;;;;;;;;;;;;;-6.08;81.05;103036.15;105191;1263;97114;-79
2023/02/09 03:08:56;;;;;;;87.20;38.70;;;;;;;-6.08;81.13;103024.14;105170;1264;96830;-78
2023/02/09 03:11:45;;;;;;;82.40;38.80;;;;;;;-6.09;80.77;103017.54;105089;1270;103072;-78
2023/02/09 03:14:30;;;;;;;88.60;38.70;;;;;;;-6.10;80.65;103013.73;105004;1261;99866;-78
2023/02/09 03:17:39;;;;;;;78.30;36.60;;;;;;;-6.13;80.76;103011.52;105054;1265;98451;-78
2023/02/09 03:20:48;;;;;;;80.50;39.60;;;;;;;-6.14;81.00;103008.05;105160;1264;96735;-78
2023/02/09 03:23:49;;;;;;;86.80;38.00;;;;;;;-6.11;81.02;103007.66;105209;1267;96619;-78
2023/02/09 03:26:49;;;;;;;85.90;38.40;;;;;;;-6.09;80.72;103004.85;106117;1266;100016;-78
2023/02/09 03:29:36;;;;;;;83.90;37.90;;;;;;;-6.10;80.75;103000.34;105044;1264;99158;-78
2023/02/09 03:32:23;;;;;;;87.10;40.70;;;;;;;-6.09;80.83;103000.69;105279;1263;97754;-78
2023/02/09 03:35:12;;;;;;;84.40;38.30;;;;;;;-6.07;80.77;103003.96;105278;1268;96507;-77
2023/02/09 03:37:57;;;;;;;82.90;37.90;;;;;;;-6.07;80.89;103003.08;105195;1265;97168;-77
2023/02/09 03:40:43;;;;;;;85.90;40.00;;;;;;;-6.06;80.95;103002.02;105082;1261;101288;-78
2023/02/09 03:46:32;;;;;;;86.80;37.40;;;;;;;-6.05;81.17;102998.00;105199;1266;97716;-78
2023/02/09 03:49:17;;;;;;;86.30;36.30;;;;;;;-6.04;81.15;102995.90;105171;1267;97144;-78
2023/02/09 03:52:05;;;;;;;75.80;35.40;;;;;;;-6.06;81.06;102994.89;105295;1261;97211;-78
2023/02/09 03:54:50;;;;;;;88.00;38.10;;;;;;;-6.07;80.97;102992.46;105158;1263;100851;-77
2023/02/09 03:57:38;;;;;;;83.30;37.90;;;;;;;-6.07;81.24;102988.66;104984;1265;99165;-78
2023/02/09 04:00:23;;;;;;;83.60;38.70;;;;;;;-6.06;81.40;102986.55;105182;1264;97735;-78
2023/02/09 04:03:09;;;;;;;81.60;34.60;;;;;;;-6.06;81.25;102987.25;105211;1263;97332;-78
2023/02/09 04:05:54;;;;;;;81.70;38.00;;;;;;;-6.09;81.16;102987.81;105038;1268;98263;-77
2023/02/09 04:08:41;;;;;;;82.10;36.50;;;;;;;-6.11;81.41;102987.66;105180;1266;100033;-78
2023/02/09 04:11:27;;;;;;;93.50;37.10;;;;;;;-6.12;81.24;102990.28;105189;1266;99076;-77
2023/02/09 04:14:13;;;;;;;87.40;39.60;;;;;;;-6.12;81.25;102987.50;105152;1265;97785;-78
2023/02/09 04:16:59;;;;;;;87.70;37.00;;;;;;;-6.13;81.40;102983.53;104957;1264;96678;-77
2023/02/09 04:19:45;;;;;;;82.40;37.70;;;;;;;-6.13;81.54;102988.91;105098;1265;97139;-79
2023/02/09 04:22:30;;;;;;;88.20;35.90;;;;;;;-6.11;81.46;102985.58;105159;1264;100015;-78
2023/02/09 04:25:16;;;;;;;87.40;39.50;;;;;;;-6.07;81.63;102985.86;105138;1265;99100;-78
2023/02/09 04:28:02;;;;;;;80.50;36.70;;;;;;;-6.03;81.54;102985.97;105026;1261;98682;-78
2023/02/09 04:30:53;;;;;;;87.00;38.50;;;;;;;-6.00;81.37;102990.10;105059;1261;96625;-78
2023/02/09 04:33:38;;;;;;;89.70;37.30;;;;;;;-5.97;81.09;102991.29;105001;1264;96600;-79
2023/02/09 04:36:23;;;;;;;80.50;37.00;;;;;;;-5.97;80.95;102992.48;105258;1261;101278;-78
2023/02/09 04:39:09;;;;;;;80.80;35.10;;;;;;;-5.98;80.83;102995.99;105226;1266;100810;-79
2023/02/09 04:41:54;;;;;;;78.90;36.30;;;;;;;-5.98;80.93;102994.07;105150;1267;97710;-78
2023/02/09 04:44:40;;;;;;;87.00;37.60;;;;;;;-5.93;81.10;102994.00;105202;1267;96619;-78
2023/02/09 04:47:26;;;;;;;86.30;38.60;;;;;;;-5.89;81.04;102995.64;105299;1266;97254;-79
2023/02/09 04:50:11;;;;;;;83.90;37.60;;;;;;;-5.86;80.94;102990.91;105227;1265;100057;-78
2023/02/09 04:52:57;;;;;;;88.80;38.20;;;;;;;-5.86;80.63;102986.23;105079;1267;99095;-79
2023/02/09 04:55:44;;;;;;;99.80;40.50;;;;;;;-5.85;80.78;102978.21;105243;1261;99010;-78
2023/02/09 05:01:34;;;;;;;89.50;39.00;;;;;;;-5.84;80.70;102976.46;105424;1265;96574;-79
2023/02/09 05:04:19;;;;;;;89.60;40.20;;;;;;;-5.83;80.86;102973.10;104992;1264;100770;-78
2023/02/09 05:07:04;;;;;;;96.50;40.10;;;;;;;-5.81;81.01;102969.94;105109;1264;99980;-79
2023/02/09 05:09:50;;;;;;;100.30;43.10;;;;;;;-5.81;80.69;102967.49;105144;1261;99017;-78
2023/02/09 05:12:36;;;;;;;84.00;40.10;;;;;;;-5.82;80.55;102961.94;105120;1265;97110;-78
2023/02/09 05:15:21;;;;;;;95.10;45.10;;;;;;;-5.84;80.37;102959.76;105064;1264;96620;-78
2023/02/09 05:18:07;;;;;;;88.90;41.10;;;;;;;-5.88;80.14;102965.38;104987;1261;101313;-79
2023/02/09 05:20:52;;;;;;;95.30;39.30;;;;;;;-5.91;80.32;102964.39;105253;1262;99261;-79
2023/02/09 05:23:38;;;;;;;90.70;40.50;;;;;;;-5.91;80.25;102963.17;105200;1264;98676;-79
2023/02/09 05:26:24;;;;;;;90.70;39.40;;;;;;;-5.91;80.29;102960.39;105026;1267;96628;-79
2023/02/09 05:29:09;;;;;;;80.40;37.60;;;;;;;-5.90;80.23;102960.73;105094;1265;98049;-80
2023/02/09 05:31:54;;;;;;;88.80;40.90;;;;;;;-5.91;80.36;102955.52;105586;1265;101290;-79
2023/02/09 05:34:40;;;;;;;101.50;43.80;;;;;;;-5.91;80.49;102955.52;105201;1262;100376;-79
2023/02/09 05:37:25;;;;;;;101.00;43.30;;;;;;;-5.91;80.34;102956.58;105035;1262;98928;-77
2023/02/09 05:40:11;;;;;;;100.60;43.00;;;;;;;-5.93;80.15;102954.15;105200;1261;97507;-78
2023/02/09 05:42:58;;;;;;;103.70;45.10;;;;;;;-5.96;80.03;102957.33;105256;1264;96523;-79
2023/02/09 05:45:44;;;;;;;98.20;46.40;;;;;;;-5.99;79.88;102957.39;105259;1264;100993;-79
2023/02/09 05:48:29;;;;;;;106.80;46.20;;;;;;;-6.03;79.61;102952.76;105156;1265;99147;-78
2023/02/09 05:51:15;;;;;;;90.20;42.70;;;;;;;-6.07;79.61;102951.25;105207;1267;97566;-78
2023/02/09 05:54:01;;;;;;;92.70;43.80;;;;;;;-6.12;79.32;102948.90;105213;1261;96637;-79
2023/02/09 05:56:47;;;;;;;96.70;43.20;;;;;;;-6.16;79.29;102947.41;105304;1263;98043;-78
2023/02/09 05:59:32;;;;;;;93.50;40.10;;;;;;;-6.22;79.13;102943.14;105561;1265;101265;-79
2023/02/09 06:02:18;;;;;;;95.00;41.40;;;;;;;-6.24;79.13;102944.40;105387;1266;99123;-78
2023/02/09 06:05:03;;;;;;;91.80;42.00;;;;;;;-6.30;78.73;102944.83;105410;1262;107967;-80
2023/02/09 06:07:49;;;;;;;98.40;45.20;;;;;;;-6.35;78.69;102945.06;105414;1267;96720;-78
2023/02/09 06:10:35;;;;;;;96.20;42.70;;;;;;;-6.41;78.50;102943.42;105176;1262;96549;-79
2023/02/09 06:13:20;;;;;;;88.10;39.90;;;;;;;-6.47;78.27;102950.30;105308;1264;100045;-78
2023/02/09 06:16:06;;;;;;;93.90;42.80;;;;;;;-6.50;78.31;102949.99;105251;1265;100360;-78
2023/02/09 06:18:52;;;;;;;90.50;39.50;;;;;;;-6.52;78.29;102947.77;104995;1267;99757;-79
2023/02/09 06:21:37;;;;;;;90.70;40.30;;;;;;;-6.54;78.33;102947.61;104982;1264;96645;-78
2023/02/09 06:24:22;;;;;;;76.70;38.70;;;;;;;-6.54;78.46;102948.13;105268;1264;97156;-78
2023/02/09 06:27:08;;;;;;;90.20;43.70;;;;;;;-6.53;78.77;102944.30;105141;1264;100057;-78
2023/02/09 06:29:53;;;;;;;87.50;41.10;;;;;;;-6.53;78.79;102938.91;105174;1280;100443;-78
2023/02/09 06:32:39;;;;;;;86.80;38.30;;;;;;;-6.51;78.83;102940.10;105240;1265;98992;-78
2023/02/09 06:35:24;;;;;;;92.40;40.50;;;;;;;-6.51;78.93;102934.20;105199;1267;97498;-78
2023/02/09 06:38:11;;;;;;;91.90;40.30;;;;;;;-6.50;78.84;102934.00;105209;1264;97112;-79
2023/02/09 06:40:56;;;;;;;97.20;45.10;;;;;;;-6.51;78.85;102930.36;105259;1264;100045;-78
2023/02/09 06:43:42;;;;;;;92.70;43.00;;;;;;;-6.53;78.72;102929.34;105264;1261;100370;-78
2023/02/09 06:46:28;;;;;;;102.10;45.90;;;;;;;-6.52;79.04;102930.02;105305;1264;97744;-78
2023/02/09 06:49:13;;;;;;;107.90;48.80;;;;;;;-6.48;79.40;102931.02;105148;1265;96636;-78
2023/02/09 06:51:58;;;;;;;105.60;52.90;;;;;;;-6.44;79.68;102933.06;105209;1266;97138;-78
2023/02/09 06:54:44;;;;;;;97.80;44.80;;;;;;;-6.40;79.86;102930.38;105219;1262;99996;-78
2023/02/09 06:57:30;;;;;;;96.10;42.00;;;;;;;-6.37;80.30;102926.15;105291;1261;100500;-78
2023/02/09 07:00:16;;;;;;;103.50;45.00;;;;;;;-6.37;80.64;102933.46;105145;1262;98426;-77
2023/02/09 07:03:02;;;;;;;84.80;38.80;;;;;;;-6.40;80.93;102931.77;105114;1261;96682;-78
2023/02/09 07:05:47;;;;;;;98.10;44.80;;;;;;;-6.40;81.06;102933.34;105245;1262;97111;-79
2023/02/09 07:08:34;;;;;;;101.50;44.60;;;;;;;-6.37;81.29;102929.45;105020;1264;99999;-79
2023/02/09 07:11:20;;;;;;;95.90;43.70;;;;;;;-6.33;81.41;102930.11;104967;1267;99829;-78
2023/02/09 07:14:06;;;;;;;101.00;45.00;;;;;;;-6.32;81.55;102937.38;105142;1265;97786;-79
2023/02/09 07:16:51;;;;;;;96.10;43.80;;;;;;;-6.31;81.47;102933.36;105378;1267;96617;-78
2023/02/09 07:19:37;;;;;;;112.00;46.70;;;;;;;-6.27;81.55;102925.48;105208;1263;97272;-78
2023/02/09 07:22:24;;;;;;;103.70;46.90;;;;;;;-6.21;81.78;102920.70;105150;1270;101535;-77
2023/02/09 07:25:10;;;;;;;106.10;46.70;;;;;;;-6.16;81.98;102919.40;105373;1264;100319;-79
2023/02/09 07:27:55;;;;;;;106.50;46.70;;;;;;;-6.12;82.26;102916.38;105293;1264;97932;-78
2023/02/09 07:30:41;;;;;;;110.00;50.00;;;;;;;-6.05;82.11;102916.80;105234;1262;96459;-78
2023/02/09 07:33:26;;;;;;;110.80;53.10;;;;;;;-5.97;82.24;102918.05;105226;1267;97205;-78
2023/02/09 07:36:14;;;;;;;103.00;47.60;;;;;;;-5.91;82.26;102915.84;104940;1262;100724;-78
2023/02/09 07:38:59;;;;;;;113.80;47.60;;;;;;;-5.85;82.46;102911.38;105225;1262;99265;-78
2023/02/09 07:41:45;;;;;;;106.70;46.10;;;;;;;-5.83;82.57;102911.16;105102;1262;98986;-79
2023/02/09 07:44:31;;;;;;;96.80;44.40;;;;;;;-5.83;82.51;102914.83;105539;1267;96563;-80
2023/02/09 07:47:16;;;;;;;101.40;44.10;;;;;;;-5.81;82.59;102914.26;105866;1263;97149;-80
2023/02/09 07:50:02;;;;;;;94.20;43.00;;;;;;;-5.80;82.50;102909.38;105706;1265;101240;-78
2023/02/09 07:52:48;;;;;;;90.00;40.50;;;;;;;-5.79;82.63;102910.91;105523;1264;99106;-79
2023/02/09 07:55:33;;;;;;;100.40;44.50;;;;;;;-5.77;82.73;102911.05;105227;1262;98419;-79
2023/02/09 07:58:20;;;;;;;99.80;45.20;;;;;;;-5.77;82.91;102912.45;105042;1268;96638;-79
2023/02/09 08:01:10;;;;;;;102.50;44.00;;;;;;;-5.72;83.15;102913.58;105145;1267;98271;-79
2023/02/09 08:03:55;;;;;;;94.00;43.00;;;;;;;-5.66;83.34;102916.77;105370;1267;100918;-79
2023/02/09 08:06:45;;;;;;;99.90;43.70;;;;;;;-5.60;83.54;102915.27;105302;1262;99079;-78
2023/02/09 08:09:30;;;;;;;92.30;41.70;;;;;;;-5.55;83.84;102918.83;105063;1265;97787;-79
2023/02/09 08:12:16;;;;;;;89.60;43.10;;;;;;;-5.50;84.10;102920.65;105158;1264;97099;-76
2023/02/09 08:15:01;;;;;;;99.70;47.30;;;;;;;-5.44;84.09;102917.06;105177;1264;97309;-79
2023/02/09 08:17:50;;;;;;;96.50;44.80;;;;;;;-5.38;84.33;102914.34;105109;1263;100559;-78
2023/02/09 08:20:35;;;;;;;91.60;42.00;;;;;;;-5.30;84.58;102913.48;105090;1267;100321;-79
2023/02/09 08:23:28;;;;;;;109.70;45.60;;;;;;;-5.21;84.69;102912.77;105218;1269;98494;-78
2023/02/09 08:26:14;;;;;;;100.10;44.80;;;;;;;-5.12;84.71;102910.86;105310;1265;96970;-79
2023/02/09 08:29:00;;;;;;;102.60;44.80;;;;;;;-5.05;84.78;102906.86;105238;1262;97174;-79
2023/02/09 08:31:46;;;;;;;95.20;40.80;;;;;;;-4.97;84.73;102907.23;105262;1266;100008;-78
2023/02/09 08:34:31;;;;;;;110.70;48.10;;;;;;;-4.89;84.73;102902.88;105176;1267;99104;-79
2023/02/09 08:37:16;;;;;;;100.60;48.30;;;;;;;-4.82;84.79;102895.74;105277;1273;98991;-78
2023/02/09 08:40:03;;;;;;;104.30;45.60;;;;;;;-4.75;84.83;102888.96;105291;1263;96619;-79
2023/02/09 08:42:48;;;;;;;114.00;49.40;;;;;;;-4.66;85.02;102890.52;105125;1267;97153;-79
2023/02/09 08:45:35;;;;;;;98.10;43.00;;;;;;;-4.56;85.14;102887.85;105152;1265;100210;-79
2023/02/09 08:48:21;;;;;;;102.00;47.80;;;;;;;-4.48;85.04;102887.13;105191;1262;100080;-78
2023/02/09 08:51:08;;;;;;;100.50;47.30;;;;;;;-4.39;84.99;102885.88;105380;1264;97723;-78
2023/02/09 08:53:54;;;;;;;99.40;47.20;;;;;;;-4.28;85.19;102884.73;105127;1267;96695;-78
2023/02/09 08:56:40;;;;;;;98.80;44.40;;;;;;;-4.19;84.94;102884.01;105112;1264;97050;-77
2023/02/09 08:59:25;;;;;;;104.00;47.50;;;;;;;-4.12;84.85;102881.02;105289;1264;100931;-78
2023/02/09 09:02:11;;;;;;;100.80;47.10;;;;;;;-4.06;84.79;102872.13;105380;1267;99087;-78
2023/02/09 09:04:57;;;;;;;104.20;49.20;;;;;;;-3.97;84.96;102870.69;105277;1262;98758;-78
2023/02/09 09:07:42;;;;;;;106.20;46.20;;;;;;;-3.86;85.16;102867.45;105269;1268;96530;-77
2023/02/09 09:10:29;;;;;;;114.50;52.00;;;;;;;-3.76;85.20;102859.86;105239;1267;97412;-78
2023/02/09 09:13:14;;;;;;;109.10;49.60;;;;;;;-3.67;85.01;102856.83;105256;1277;100545;-79
2023/02/09 09:16:00;;;;;;;258.60;104.50;;;;;;;-3.57;84.96;102851.98;105321;1265;99102;-78
2023/02/09 09:18:46;;;;;;;173.00;76.80;;;;;;;-3.47;84.93;102845.23;105244;1266;98979;-78
2023/02/09 09:21:32;;;;;;;121.50;61.80;;;;;;;-3.37;84.80;102840.08;105061;1262;96627;-79
2023/02/09 09:24:18;;;;;;;97.00;48.10;;;;;;;-3.28;84.65;102839.28;105093;1269;98483;-78
2023/02/09 09:27:05;;;;;;;98.50;43.20;;;;;;;-3.20;84.76;102836.06;105334;1266;101283;-78
2023/02/09 09:29:50;;;;;;;97.20;44.80;;;;;;;-3.11;84.77;102834.60;105303;1264;100340;-77
2023/02/09 09:32:35;;;;;;;100.60;46.80;;;;;;;-3.03;84.54;102833.83;104969;1277;98619;-78
2023/02/09 09:35:21;;;;;;;103.20;46.40;;;;;;;-2.95;84.52;102833.94;104956;1264;97512;-77
2023/02/09 09:38:08;;;;;;;102.90;44.40;;;;;;;-2.86;84.53;102831.02;105356;1266;96577;-78
2023/02/09 09:40:54;;;;;;;85.50;41.30;;;;;;;-2.77;84.51;102824.63;105253;1262;100035;-78
2023/02/09 09:43:40;;;;;;;82.60;37.70;;;;;;;-2.67;84.44;102817.67;105155;1266;100355;-78
2023/02/09 09:46:35;;;;;;;79.20;35.50;;;;;;;-2.58;84.53;102812.84;105171;1262;97738;-78
2023/02/09 09:49:25;;;;;;;68.70;34.50;;;;;;;-2.46;84.53;102812.08;105484;1268;97292;-78
2023/02/09 09:52:32;;;;;;;77.90;34.30;;;;;;;-2.34;84.41;102808.19;105291;1265;96711;-78
2023/02/09 09:55:27;;;;;;;71.20;33.70;;;;;;;-2.22;84.55;102806.40;105118;1269;100152;-77
2023/02/09 09:58:18;;;;;;;73.90;34.30;;;;;;;-2.11;84.47;102807.56;106226;1263;99371;-78
2023/02/09 10:01:05;;;;;;;;;;;;;;;-2.00;84.15;102803.19;105241;1278;97756;-78
2023/02/09 10:03:50;;;;;;;70.00;33.40;;;;;;;-1.92;84.04;102803.07;105245;1262;96347;-77
2023/02/09 10:06:40;;;;;;;71.60;33.50;;;;;;;-1.82;83.97;102800.79;105231;1266;97172;-77
2023/02/09 10:09:36;;;;;;;76.80;34.80;;;;;;;-1.72;83.63;102796.90;105675;1267;101246;-78
2023/02/09 10:12:34;;;;;;;69.60;32.20;;;;;;;-1.60;83.63;102786.66;105910;1264;99679;-80
2023/02/09 10:15:27;;;;;;;67.70;33.00;;;;;;;-1.49;83.40;102777.85;106131;1269;97791;-80
2023/02/09 10:18:14;;;;;;;61.70;32.60;;;;;;;-1.39;83.24;102771.68;106420;1264;96679;-80
2023/02/09 10:21:09;;;;;;;66.40;33.00;;;;;;;-1.30;82.86;102773.08;106408;1267;96605;-80
2023/02/09 10:24:00;;;;;;;64.20;30.30;;;;;;;-1.21;82.76;102764.13;106510;1265;99999;-78
2023/02/09 10:27:06;;;;;;;56.90;29.00;;;;;;;-1.11;82.14;102756.23;106450;1262;100298;-80
2023/02/09 10:29:52;;;;;;;57.50;29.00;;;;;;;-1.02;81.93;102753.23;106600;1264;97751;-80
2023/02/09 10:32:42;;;;;;;55.20;26.40;;;;;;;-0.93;81.75;102751.98;106173;1264;97475;-80
2023/02/09 10:35:43;;;;;;;50.00;24.00;;;;;;;-0.86;81.42;102747.14;105814;1267;96536;-79
2023/02/09 10:38:30;;;;;;;53.30;25.90;;;;;;;-0.79;80.97;102749.52;105492;1266;101251;-79
2023/02/09 10:41:16;;;;;;;51.60;25.20;;;;;;;-0.73;80.63;102745.94;105612;1264;100368;-78
2023/02/09 10:44:13;;;;;;;51.80;24.70;;;;;;;-0.67;80.50;102738.98;105429;1264;98647;-78
2023/02/09 10:47:17;;;;;;;67.50;35.10;;;;;;;-0.61;80.23;102740.85;105571;1267;96010;-79
2023/02/09 10:50:12;;;;;;;68.00;35.60;;;;;;;-0.54;80.17;102732.14;105401;1268;96614;-78
2023/02/09 10:53:01;;;;;;;68.50;34.50;;;;;;;-0.47;80.05;102730.23;105140;1264;101270;-79
2023/02/09 10:55:48;;;;;;;60.40;33.00;;;;;;;-0.41;79.85;102731.59;104995;1271;99372;-78
2023/02/09 10:58:36;;;;;;;57.40;29.40;;;;;;;-0.38;79.34;102727.23;106384;1268;97677;-79
2023/02/09 11:01:25;;;;;;;56.60;30.20;;;;;;;-0.33;79.42;102720.70;105188;1278;96712;-78
2023/02/09 11:04:23;;;;;;;68.60;32.50;;;;;;;-0.28;79.19;102712.58;105003;1264;96561;-78
2023/02/09 11:07:12;;;;;;;58.10;29.60;;;;;;;-0.23;78.81;102703.94;105103;1266;100038;-78
2023/02/09 11:10:11;;;;;;;60.90;31.80;;;;;;;-0.19;78.44;102702.02;105463;1263;99092;-87
2023/02/09 11:13:21;;;;;;;55.30;30.80;;;;;;;-0.16;78.44;102700.63;105841;1268;100099;-88
2023/02/09 11:17:11;;;;;;;55.00;28.00;;;;;;;-0.09;78.84;102702.95;105017;1264;96707;-87
2023/02/09 11:20:03;;;;;;;61.30;31.30;;;;;;;0.06;78.63;102697.04;105899;1267;96693;-84
2023/02/09 11:23:31;;;;;;;64.30;31.50;;;;;;;0.14;78.41;102692.11;105810;1261;100280;-80
2023/02/09 11:26:26;;;;;;;66.60;36.50;;;;;;;0.22;78.33;102693.14;105347;1268;99841;-81
2023/02/09 11:29:26;;;;;;;60.40;29.80;;;;;;;0.30;78.19;102685.39;105792;1263;97720;-81
2023/02/09 11:32:54;;;;;;;55.10;27.50;;;;;;;0.38;78.04;102679.21;105386;1265;96691;-88
2023/02/09 11:36:45;;;;;;;63.20;31.90;;;;;;;0.46;77.74;102677.58;105699;1268;96840;-85
2023/02/09 11:39:43;;;;;;;59.90;30.40;;;;;;;0.54;77.58;102675.29;106142;1268;100135;-81
2023/02/09 11:42:45;;;;;;;87.20;48.50;;;;;;;0.61;77.37;102674.05;105516;1267;99057;-82
2023/02/09 11:45:39;;;;;;;57.50;31.40;;;;;;;0.66;77.06;102671.18;105683;1271;98862;-81
2023/02/09 11:48:31;;;;;;;59.70;30.30;;;;;;;0.71;77.01;102669.00;105857;1276;96618;-84
2023/02/09 11:51:23;;;;;;;61.00;33.10;;;;;;;0.79;77.13;102668.08;105932;1264;96637;-85
2023/02/09 11:54:23;;;;;;;59.10;32.80;;;;;;;0.86;76.84;102661.41;106136;1264;100772;-81
2023/02/09 11:57:30;;;;;;;54.00;29.50;;;;;;;0.92;76.66;102657.63;106139;1265;99112;-84
2023/02/09 12:00:21;;;;;;;64.20;32.10;;;;;;;0.98;76.73;102655.05;105962;1263;98351;-80
2023/02/09 12:03:11;;;;;;;59.70;29.80;;;;;;;1.02;76.15;102652.00;105978;1269;98003;-85
2023/02/09 12:05:57;;;;;;;61.30;29.40;;;;;;;1.06;75.94;102641.77;106059;1268;97192;-81
2023/02/09 12:08:58;;;;;;;56.10;30.00;;;;;;;1.09;75.75;102638.46;105869;1264;100001;-81
2023/02/09 12:12:22;;;;;;;54.90;28.10;;;;;;;1.11;75.81;102637.47;106151;1268;99375;-81
2023/02/09 12:15:18;;;;;;;57.50;31.50;;;;;;;1.15;75.83;102637.99;105844;1266;99067;-82
2023/02/09 12:18:15;;;;;;;51.70;27.20;;;;;;;1.19;75.32;102635.66;105751;1268;96747;-82
2023/02/09 12:21:06;;;;;;;54.20;28.30;;;;;;;1.21;75.11;102636.99;105871;1263;139606;-83
2023/02/09 12:23:51;;;;;;;56.00;32.20;;;;;;;1.23;74.85;102636.86;106142;1267;101262;-86
2023/02/09 12:26:42;;;;;;;52.80;28.10;;;;;;;1.23;74.27;102632.27;106007;1263;100409;-82
2023/02/09 12:29:39;;;;;;;56.10;28.80;;;;;;;1.23;74.09;102625.27;105932;1269;99187;-83
2023/02/09 12:32:43;;;;;;;56.40;28.70;;;;;;;1.27;74.55;102623.64;105793;1264;96517;-84
2023/02/09 12:35:38;;;;;;;53.70;28.10;;;;;;;1.30;73.97;102621.35;105902;1264;97069;-81
2023/02/09 12:38:24;;;;;;;55.10;27.60;;;;;;;1.32;73.80;102611.75;105726;1264;100034;-80
2023/02/09 12:41:11;;;;;;;54.20;29.50;;;;;;;1.34;73.78;102605.67;105976;1264;100425;-78
2023/02/09 12:44:17;;;;;;;52.10;28.60;;;;;;;1.36;73.70;102598.36;105467;1266;99363;-83
2023/02/09 12:47:38;;;;;;;56.80;30.20;;;;;;;1.38;73.60;102597.92;106106;1264;96537;-80